createdAt,value
2023-01-17T00:00:28.533Z,101.95
2023-01-17T00:03:09.307Z,108.68
2023-01-17T00:05:59.355Z,106.07
2023-01-17T00:08:55.177Z,122.68
2023-01-17T00:11:42.774Z,113.57
2023-01-17T00:14:43.584Z,108.32
2023-01-17T00:17:44.490Z,127.97
2023-01-17T00:20:42.290Z,99.20
2023-01-17T00:23:33.979Z,118.22
2023-01-17T00:26:03.620Z,122.78
2023-01-17T00:28:39.353Z,129.00
2023-01-17T00:31:09.398Z,107.10
2023-01-17T00:33:36.594Z,109.40
2023-01-17T00:36:24.677Z,110.00
2023-01-17T00:39:25.717Z,100.38
2023-01-17T00:42:06.084Z,118.05
2023-01-17T00:44:51.593Z,142.07
2023-01-17T00:47:37.659Z,98.28
2023-01-17T00:50:23.879Z,106.78
2023-01-17T00:53:09.392Z,131.18
2023-01-17T00:55:55.128Z,113.35
2023-01-17T00:58:40.938Z,127.57
2023-01-17T01:01:26.823Z,123.32
2023-01-17T01:04:13.440Z,108.22
2023-01-17T01:06:59.196Z,112.05
2023-01-17T01:09:44.762Z,114.63
2023-01-17T01:12:50.026Z,110.53
2023-01-17T01:15:48.683Z,123.82
2023-01-17T01:18:34.182Z,135.23
2023-01-17T01:21:23.453Z,121.75
2023-01-17T01:24:09.082Z,135.13
2023-01-17T01:26:54.802Z,134.05
2023-01-17T01:29:40.432Z,116.10
2023-01-17T01:32:26.254Z,130.55
2023-01-17T01:35:13.497Z,129.75
2023-01-17T01:38:16.568Z,128.73
2023-01-17T01:40:57.154Z,134.15
2023-01-17T01:43:48.887Z,115.65
2023-01-17T01:46:32.309Z,126.55
2023-01-17T01:49:03.400Z,127.32
2023-01-17T01:51:41.617Z,115.03
2023-01-17T01:54:15.625Z,110.45
2023-01-17T01:57:05.573Z,104.28
2023-01-17T01:59:54.528Z,116.38
2023-01-17T02:02:21.509Z,112.28
2023-01-17T02:04:49.967Z,107.63
2023-01-17T02:07:28.400Z,103.15
2023-01-17T02:09:55.393Z,110.60
2023-01-17T02:12:42.792Z,116.25
2023-01-17T02:16:07.640Z,114.95
2023-01-17T02:19:17.705Z,97.78
2023-01-17T02:22:19.885Z,106.88
2023-01-17T02:25:05.240Z,105.18
2023-01-17T02:27:50.834Z,116.50
2023-01-17T02:30:32.237Z,119.18
2023-01-17T02:33:25.148Z,105.18
2023-01-17T02:36:28.555Z,125.55
2023-01-17T02:39:33.657Z,111.55
2023-01-17T02:44:44.907Z,103.47
2023-01-17T02:47:21.175Z,105.03
2023-01-17T02:49:48.284Z,97.97
2023-01-17T02:52:21.874Z,105.15
2023-01-17T02:55:11.771Z,108.10
2023-01-17T02:58:07.261Z,102.90
2023-01-17T03:01:04.390Z,131.07
2023-01-17T03:03:51.964Z,112.65
2023-01-17T03:06:30.643Z,103.22
2023-01-17T03:08:57.851Z,100.65
2023-01-17T03:11:44.999Z,99.75
2023-01-17T03:14:38.785Z,108.03
2023-01-17T03:17:05.960Z,123.35
2023-01-17T03:19:33.702Z,111.35
2023-01-17T03:22:01.074Z,110.80
2023-01-17T03:24:28.201Z,123.85
2023-01-17T03:26:55.228Z,121.45
2023-01-17T03:29:23.048Z,110.45
2023-01-17T03:31:52.237Z,101.75
2023-01-17T03:34:39.594Z,89.15
2023-01-17T03:37:33.557Z,82.20
2023-01-17T03:40:33.327Z,76.63
2023-01-17T03:43:00.575Z,73.88
2023-01-17T03:45:27.839Z,71.93
2023-01-17T03:47:56.868Z,72.93
2023-01-17T03:50:24.527Z,82.88
2023-01-17T03:52:51.575Z,74.53
2023-01-17T03:55:18.880Z,82.97
2023-01-17T03:57:45.888Z,88.28
2023-01-17T04:00:13.637Z,76.00
2023-01-17T04:02:44.336Z,82.18
2023-01-17T04:05:11.706Z,90.35
2023-01-17T04:07:38.706Z,115.85
2023-01-17T04:10:06.690Z,80.78
2023-01-17T04:12:53.658Z,101.90
2023-01-17T04:15:54.545Z,104.55
2023-01-17T04:18:35.879Z,108.68
2023-01-17T04:21:03.256Z,116.13
2023-01-17T04:23:30.174Z,86.22
2023-01-17T04:25:57.583Z,92.90
2023-01-17T04:28:24.677Z,97.30
2023-01-17T04:30:52.544Z,92.15
2023-01-17T04:33:19.881Z,99.13
2023-01-17T04:36:06.578Z,85.80
2023-01-17T04:39:07.599Z,95.50
2023-01-17T04:41:48.051Z,91.63
2023-01-17T04:44:15.216Z,96.65
2023-01-17T04:46:42.104Z,87.63
2023-01-17T04:49:09.034Z,109.05
2023-01-17T04:51:36.460Z,100.57
2023-01-17T04:54:03.868Z,114.80
2023-01-17T04:56:30.847Z,100.55
2023-01-17T04:58:58.393Z,110.22
2023-01-17T05:01:25.473Z,98.45
2023-01-17T05:03:52.540Z,101.13
2023-01-17T05:06:19.444Z,104.30
2023-01-17T05:08:46.427Z,116.80
2023-01-17T05:11:14.307Z,114.95
2023-01-17T05:13:54.775Z,113.82
2023-01-17T05:16:35.498Z,96.72
2023-01-17T05:19:02.578Z,99.10
2023-01-17T05:21:30.644Z,110.50
2023-01-17T05:23:58.507Z,102.32
2023-01-17T05:26:25.829Z,91.93
2023-01-17T05:28:53.177Z,88.68
2023-01-17T05:31:20.885Z,92.97
2023-01-17T05:33:48.009Z,103.30
2023-01-17T05:36:34.851Z,96.47
2023-01-17T05:39:37.939Z,111.55
2023-01-17T05:42:18.506Z,136.27
2023-01-17T05:44:48.016Z,136.63
2023-01-17T05:47:18.079Z,111.50
2023-01-17T05:49:46.067Z,129.00
2023-01-17T05:52:21.098Z,108.20
2023-01-17T05:54:53.469Z,120.72
2023-01-17T05:57:20.779Z,122.05
2023-01-17T05:59:51.007Z,134.05
2023-01-17T06:02:22.475Z,122.80
2023-01-17T06:04:53.513Z,117.00
2023-01-17T06:07:20.843Z,130.10
2023-01-17T06:09:50.482Z,128.68
2023-01-17T06:12:37.697Z,127.57
2023-01-17T06:15:46.974Z,108.53
2023-01-17T06:18:34.633Z,95.50
2023-01-17T06:21:06.778Z,97.57
2023-01-17T06:23:37.950Z,115.80
2023-01-17T06:26:06.608Z,97.90
2023-01-17T06:28:34.390Z,99.95
2023-01-17T06:31:09.324Z,106.60
2023-01-17T06:33:38.069Z,90.53
2023-01-17T06:36:26.157Z,100.20
2023-01-17T06:39:30.020Z,104.53
2023-01-17T06:42:13.993Z,86.65
2023-01-17T06:44:42.023Z,102.22
2023-01-17T06:47:14.211Z,108.10
2023-01-17T06:49:45.055Z,103.25
2023-01-17T06:52:18.139Z,109.05
2023-01-17T06:54:54.254Z,96.85
2023-01-17T06:57:21.930Z,98.95
2023-01-17T07:00:08.823Z,105.60
2023-01-17T07:02:54.653Z,103.25
2023-01-17T07:05:23.137Z,105.72
2023-01-17T07:07:50.836Z,106.50
2023-01-17T07:10:18.627Z,99.03
2023-01-17T07:13:12.922Z,102.97
2023-01-17T07:19:23.996Z,106.88
2023-01-17T07:22:26.753Z,99.20
2023-01-17T07:25:15.751Z,106.53
2023-01-17T07:27:47.136Z,109.18
2023-01-17T07:30:15.640Z,113.18
2023-01-17T07:32:43.011Z,118.15
2023-01-17T07:35:37.882Z,112.85
2023-01-17T07:38:46.027Z,126.75
2023-01-17T07:41:48.467Z,126.63
2023-01-17T07:44:29.937Z,116.97
2023-01-17T07:47:00.565Z,114.45
2023-01-17T07:49:28.316Z,125.35
2023-01-17T07:51:58.405Z,103.60
2023-01-17T07:54:25.919Z,130.60
2023-01-17T07:56:55.845Z,114.38
2023-01-17T07:59:23.171Z,133.68
2023-01-17T08:01:50.486Z,115.68
2023-01-17T08:04:22.147Z,122.65
2023-01-17T08:06:52.102Z,143.75
2023-01-17T08:09:19.758Z,115.50
2023-01-17T08:12:06.727Z,127.93
2023-01-17T08:15:07.917Z,127.93
2023-01-17T08:18:08.899Z,103.20
2023-01-17T08:21:09.689Z,134.07
2023-01-17T08:24:11.031Z,163.57
2023-01-17T08:26:48.141Z,128.20
2023-01-17T08:29:20.238Z,120.10
2023-01-17T08:31:47.568Z,110.45
2023-01-17T08:34:37.124Z,132.30
2023-01-17T08:37:39.542Z,125.75
2023-01-17T08:40:33.751Z,109.32
2023-01-17T08:43:04.912Z,101.80
2023-01-17T08:45:38.139Z,95.18
2023-01-17T08:48:14.797Z,89.57
2023-01-17T08:50:47.630Z,70.82
2023-01-17T08:53:28.214Z,80.97
2023-01-17T09:12:31.070Z,59.90
2023-01-17T09:16:30.844Z,59.53
2023-01-17T09:19:52.101Z,63.15
2023-01-17T09:26:30.681Z,49.65
2023-01-17T09:32:04.881Z,53.78
2023-01-17T09:34:51.868Z,49.05
2023-01-17T10:18:45.433Z,30.10
2023-01-17T10:22:26.739Z,33.50
2023-01-17T10:25:26.398Z,36.67
2023-01-17T10:28:06.713Z,36.70
2023-01-17T10:30:42.427Z,38.45
2023-01-17T10:33:18.116Z,41.67
2023-01-17T10:36:11.397Z,34.03
2023-01-17T10:39:03.894Z,36.13
2023-01-17T10:41:37.514Z,33.78
2023-01-17T10:44:10.495Z,26.17
2023-01-17T10:46:51.974Z,30.92
2023-01-17T10:49:34.583Z,21.35
2023-01-17T10:52:30.580Z,27.00
2023-01-17T10:55:05.496Z,26.52
2023-01-17T10:57:39.573Z,27.13
2023-01-17T11:03:15.410Z,20.98
2023-01-17T11:06:32.430Z,30.83
2023-01-17T11:09:15.303Z,33.78
2023-01-17T11:12:04.453Z,30.27
2023-01-17T11:15:05.141Z,30.10
2023-01-17T11:17:33.420Z,28.67
2023-01-17T11:20:12.479Z,33.13
2023-01-17T11:22:39.489Z,34.70
2023-01-17T11:25:07.274Z,34.65
2023-01-17T11:27:36.132Z,25.60
2023-01-17T11:30:15.850Z,36.17
2023-01-17T11:32:53.779Z,28.15
2023-01-17T11:35:27.899Z,34.88
2023-01-17T11:38:18.029Z,35.33
2023-01-17T11:40:47.085Z,32.40
2023-01-17T11:43:25.505Z,31.25
2023-01-17T11:46:14.650Z,39.17
2023-01-17T11:48:41.701Z,34.05
2023-01-17T11:51:19.746Z,37.55
2023-01-17T11:53:48.405Z,31.45
2023-01-17T11:56:47.452Z,35.05
2023-01-17T11:59:51.452Z,38.65
2023-01-17T12:02:44.116Z,29.10
2023-01-17T12:05:54.490Z,20.25
2023-01-17T12:08:34.899Z,19.08
2023-01-17T12:11:17.095Z,18.58
2023-01-17T12:14:13.501Z,21.10
2023-01-17T12:17:24.485Z,18.80
2023-01-17T12:20:17.027Z,18.17
2023-01-17T12:23:14.166Z,19.67
2023-01-17T12:25:55.354Z,22.05
2023-01-17T12:28:54.597Z,21.25
2023-01-17T12:31:28.035Z,22.20
2023-01-17T12:34:13.932Z,16.70
2023-01-17T12:37:02.278Z,23.40
2023-01-17T12:39:36.091Z,18.67
2023-01-17T12:42:27.478Z,12.43
2023-01-17T12:48:02.620Z,13.43
2023-01-17T12:51:20.494Z,11.27
2023-01-17T12:54:10.215Z,15.85
2023-01-17T12:56:52.666Z,8.45
2023-01-17T12:59:27.880Z,5.18
2023-01-17T13:01:59.948Z,9.48
2023-01-17T13:04:58.851Z,4.97
2023-01-17T13:08:03.495Z,6.40
2023-01-17T13:11:14.509Z,9.20
2023-01-17T13:14:15.520Z,7.88
2023-01-17T13:17:19.602Z,7.05
2023-01-17T13:20:10.122Z,4.72
2023-01-17T13:22:39.875Z,5.53
2023-01-17T13:25:42.350Z,6.85
2023-01-17T13:28:18.408Z,4.97
2023-01-17T13:31:23.407Z,9.05
2023-01-17T13:36:45.168Z,9.70
2023-01-17T13:39:38.159Z,5.95
2023-01-17T13:42:47.536Z,6.40
2023-01-17T13:45:52.575Z,7.82
2023-01-17T13:52:10.628Z,4.75
2023-01-17T13:54:51.377Z,5.90
2023-01-17T13:57:33.001Z,5.20
2023-01-17T14:00:28.494Z,5.47
2023-01-17T14:03:11.875Z,5.07
2023-01-17T14:05:38.799Z,9.35
2023-01-17T14:08:41.547Z,6.55
2023-01-17T14:11:46.524Z,4.78
2023-01-17T14:17:45.936Z,5.43
2023-01-17T14:20:12.831Z,4.93
2023-01-17T14:22:47.857Z,8.82
2023-01-17T14:25:19.414Z,8.23
2023-01-17T14:27:53.406Z,9.65
2023-01-17T14:33:01.321Z,10.02
2023-01-17T14:35:30.062Z,9.00
2023-01-17T14:38:34.526Z,9.10
2023-01-17T14:41:20.421Z,5.95
2023-01-17T14:44:07.559Z,8.15
2023-01-17T14:47:08.547Z,7.07
2023-01-17T14:50:31.576Z,5.90
2023-01-17T14:53:38.553Z,9.50
2023-01-17T14:56:19.191Z,7.88
2023-01-17T14:59:26.685Z,6.55
2023-01-17T15:02:16.492Z,11.95
2023-01-17T15:04:43.569Z,8.82
2023-01-17T15:07:23.156Z,11.88
2023-01-17T15:09:50.250Z,10.18
2023-01-17T15:12:37.674Z,7.90
2023-01-17T15:15:46.533Z,13.93
2023-01-17T15:18:50.608Z,15.52
2023-01-17T15:21:40.573Z,18.85
2023-01-17T15:24:13.106Z,19.50
2023-01-17T15:26:43.308Z,15.65
2023-01-17T15:29:25.820Z,17.83
2023-01-17T15:32:18.637Z,16.38
2023-01-17T15:35:02.546Z,18.88
2023-01-17T15:37:33.415Z,13.95
2023-01-17T15:40:20.464Z,12.77
2023-01-17T15:43:00.978Z,12.75
2023-01-17T15:45:47.598Z,14.95
2023-01-17T15:48:54.565Z,18.55
2023-01-17T15:51:39.121Z,15.70
2023-01-17T15:54:59.581Z,21.45
2023-01-17T15:58:00.613Z,19.23
2023-01-17T16:00:42.081Z,25.90
2023-01-17T16:03:27.551Z,19.52
2023-01-17T16:06:15.668Z,20.98
2023-01-17T16:09:16.578Z,22.17
2023-01-17T16:12:17.608Z,20.30
2023-01-17T16:15:18.632Z,27.98
2023-01-17T16:17:57.846Z,23.67
2023-01-17T16:20:36.080Z,44.33
2023-01-17T16:23:03.227Z,35.10
2023-01-17T16:25:50.611Z,22.75
2023-01-17T16:28:31.195Z,23.00
2023-01-17T16:30:58.338Z,35.55
2023-01-17T16:33:25.253Z,21.42
2023-01-17T16:35:54.434Z,35.63
2023-01-17T16:38:21.380Z,30.63
2023-01-17T16:40:48.722Z,25.05
2023-01-17T16:43:18.403Z,37.00
2023-01-17T16:46:06.683Z,36.10
2023-01-17T16:48:51.957Z,44.97
2023-01-17T16:51:38.604Z,38.83
2023-01-17T16:54:19.453Z,31.77
2023-01-17T16:57:06.614Z,25.35
2023-01-17T16:59:51.158Z,43.63
2023-01-17T17:02:18.817Z,35.65
2023-01-17T17:04:45.866Z,20.83
2023-01-17T17:07:12.882Z,29.30
2023-01-17T17:09:39.769Z,26.90
2023-01-17T17:12:26.623Z,22.45
2023-01-17T17:15:27.587Z,33.05
2023-01-17T17:18:30.633Z,30.55
2023-01-17T17:21:17.937Z,29.13
2023-01-17T17:23:45.015Z,26.77
2023-01-17T17:26:11.998Z,42.65
2023-01-17T17:28:39.030Z,35.70
2023-01-17T17:31:10.422Z,28.52
2023-01-17T17:33:38.809Z,24.48
2023-01-17T17:36:07.931Z,33.67
2023-01-17T17:38:35.116Z,35.97
2023-01-17T17:41:09.894Z,27.25
2023-01-17T17:43:41.316Z,26.77
2023-01-17T17:46:28.703Z,23.48
2023-01-17T17:49:09.454Z,23.17
2023-01-17T17:51:56.650Z,49.35
2023-01-17T17:54:37.116Z,30.00
2023-01-17T17:57:04.228Z,33.85
2023-01-17T17:59:31.284Z,37.53
2023-01-17T18:01:59.935Z,31.60
2023-01-17T18:04:27.467Z,24.60
2023-01-17T18:07:14.631Z,22.98
2023-01-17T18:09:55.325Z,22.15
2023-01-17T18:12:42.649Z,19.33
2023-01-17T18:15:43.668Z,18.13
2023-01-17T18:18:44.656Z,19.08
2023-01-17T18:21:33.867Z,17.90
2023-01-17T18:24:11.537Z,17.38
2023-01-17T18:26:45.578Z,22.48
2023-01-17T18:31:46.026Z,16.00
2023-01-17T18:34:17.899Z,15.82
2023-01-17T18:36:45.426Z,16.13
2023-01-17T18:39:21.631Z,15.05
2023-01-17T18:41:49.444Z,21.45
2023-01-17T18:44:16.876Z,18.58
2023-01-17T18:46:48.549Z,16.30
2023-01-17T18:49:18.320Z,18.15
2023-01-17T18:51:51.823Z,18.80
2023-01-17T18:54:20.976Z,15.27
2023-01-17T18:56:48.309Z,16.42
2023-01-17T18:59:18.445Z,16.48
2023-01-17T19:01:46.472Z,16.92
2023-01-17T19:04:15.966Z,17.52
2023-01-17T19:07:03.716Z,18.02
2023-01-17T19:09:49.610Z,18.13
2023-01-17T19:12:36.682Z,25.73
2023-01-17T19:15:30.839Z,21.73
2023-01-17T19:18:24.673Z,22.58
2023-01-17T19:21:31.747Z,16.93
2023-01-17T19:24:15.717Z,18.38
2023-01-17T19:26:43.240Z,20.48
2023-01-17T19:29:10.596Z,21.88
2023-01-17T19:31:43.280Z,20.05
2023-01-17T19:34:14.029Z,97.97
2023-01-17T19:36:41.941Z,23.65
2023-01-17T19:39:09.689Z,24.40
2023-01-17T19:41:58.707Z,45.22
2023-01-17T19:44:59.689Z,40.40
2023-01-17T19:47:40.366Z,36.42
2023-01-17T19:50:09.551Z,32.60
2023-01-17T19:52:56.739Z,34.08
2023-01-17T19:55:57.967Z,36.03
2023-01-17T19:58:59.740Z,38.72
2023-01-17T20:02:01.094Z,28.35
2023-01-17T20:04:50.052Z,32.70
2023-01-17T20:07:37.768Z,28.58
2023-01-17T20:10:38.763Z,28.38
2023-01-17T20:13:39.763Z,28.20
2023-01-17T20:16:44.788Z,26.15
2023-01-17T20:19:45.697Z,26.70
2023-01-17T20:22:48.029Z,38.78
2023-01-17T20:25:48.783Z,31.02
2023-01-17T20:28:51.793Z,26.90
2023-01-17T20:31:58.772Z,24.25
2023-01-17T20:35:01.840Z,38.20
2023-01-17T20:37:42.822Z,29.05
2023-01-17T20:40:12.187Z,25.48
2023-01-17T20:42:52.821Z,23.35
2023-01-17T20:45:33.493Z,26.23
2023-01-17T20:48:00.929Z,28.10
2023-01-17T20:50:28.292Z,20.05
2023-01-17T20:53:15.792Z,24.98
2023-01-17T20:56:19.012Z,19.92
2023-01-17T20:59:22.009Z,23.83
2023-01-17T21:02:22.860Z,25.27
2023-01-17T21:05:03.777Z,19.95
2023-01-17T21:07:50.755Z,18.67
2023-01-17T21:10:51.751Z,19.05
2023-01-17T21:14:03.454Z,19.73
2023-01-17T21:17:03.829Z,21.77
2023-01-17T21:20:04.757Z,15.73
2023-01-17T21:23:05.907Z,23.48
2023-01-17T21:26:07.766Z,24.00
2023-01-17T21:29:12.799Z,20.73
2023-01-17T21:32:04.494Z,21.10
2023-01-17T21:34:51.773Z,30.42
2023-01-17T21:37:37.695Z,18.45
2023-01-17T21:40:26.846Z,17.85
2023-01-17T21:43:28.769Z,25.30
2023-01-17T21:46:29.746Z,25.80
2023-01-17T21:49:12.049Z,26.63
2023-01-17T21:51:54.945Z,26.83
2023-01-17T21:55:00.754Z,21.15
2023-01-17T21:57:59.993Z,21.33
2023-01-17T22:00:26.977Z,19.10
2023-01-17T22:02:54.036Z,26.40
2023-01-17T22:05:21.039Z,27.70
2023-01-17T22:08:19.751Z,25.83
2023-01-17T22:11:23.742Z,27.80
2023-01-17T22:14:25.829Z,26.67
2023-01-17T22:17:27.809Z,28.48
2023-01-17T22:19:58.709Z,25.40
2023-01-17T22:22:25.796Z,31.15
2023-01-17T22:24:52.744Z,38.88
2023-01-17T22:27:40.777Z,49.58
2023-01-17T22:30:41.866Z,30.60
2023-01-17T22:33:22.634Z,30.95
2023-01-17T22:35:57.935Z,30.83
2023-01-17T22:38:25.002Z,33.25
2023-01-17T22:40:51.949Z,36.17
2023-01-17T22:43:40.864Z,37.08
2023-01-17T22:46:44.827Z,38.22
2023-01-17T22:49:25.332Z,46.47
2023-01-17T22:51:52.272Z,48.50
2023-01-17T22:54:19.572Z,49.15
2023-01-17T22:56:46.619Z,43.55
2023-01-17T22:59:14.220Z,53.03
2023-01-17T23:01:41.143Z,52.33
2023-01-17T23:04:12.414Z,52.83
2023-01-17T23:06:59.798Z,60.60
2023-01-17T23:09:40.277Z,47.30
2023-01-17T23:12:26.774Z,63.08
2023-01-17T23:15:25.982Z,55.35
2023-01-17T23:18:41.907Z,68.20
2023-01-17T23:22:00.802Z,62.55
2023-01-17T23:24:55.218Z,61.15
2023-01-17T23:27:45.453Z,68.82
2023-01-17T23:30:40.796Z,87.65
2023-01-17T23:33:49.116Z,62.60
2023-01-17T23:36:29.374Z,60.95
2023-01-17T23:38:56.268Z,66.25
2023-01-17T23:41:47.825Z,67.32
2023-01-17T23:44:48.822Z,72.45
2023-01-17T23:47:54.292Z,75.22
2023-01-17T23:50:24.447Z,71.88
2023-01-17T23:53:14.801Z,65.75
2023-01-17T23:56:23.879Z,72.55
2023-01-17T23:59:04.554Z,73.55
